Time;durP1;ratioP1;P1;durP2;ratioP2;P2;SDS_P1;SDS_P2;PMS_P1;PMS_P2;Temp;Humidity;BMP_temperature;BMP_pressure;BME280_temperature;BME280_humidity;BME280_pressure;Samples;Min_cycle;Max_cycle;Signal;HPM_P1;HPM_P2
2021/08/06 00:02:01;;;;;;;4.35;3.47;;;538.00;2406.40;;;;;;5009685;28;20030;-56
2021/08/06 00:04:26;;;;;;;4.80;3.47;;;538.00;2406.40;;;;;;5009950;28;20046;-55
2021/08/06 00:06:52;;;;;;;6.78;3.45;;;538.00;2406.40;;;;;;5009606;28;20041;-57
2021/08/06 00:09:18;;;;;;;5.28;3.20;;;537.90;2406.40;;;;;;5010057;28;20092;-66
2021/08/06 00:11:44;;;;;;;3.75;2.88;;;537.90;2406.40;;;;;;5009982;28;20476;-56
2021/08/06 00:14:09;;;;;;;7.90;3.38;;;538.00;2406.40;;;;;;5010190;28;20026;-56
2021/08/06 00:16:35;;;;;;;4.20;3.00;;;538.00;2406.40;;;;;;5009718;28;20026;-56
2021/08/06 00:19:02;;;;;;;8.25;3.22;;;537.90;2406.40;;;;;;5009742;28;20076;-56
2021/08/06 00:21:29;;;;;;;6.15;3.03;;;538.00;2406.40;;;;;;5009735;28;20095;-56
2021/08/06 00:23:54;;;;;;;6.75;2.92;;;537.90;2406.40;;;;;;5009767;28;20022;-56
2021/08/06 00:26:20;;;;;;;4.35;2.60;;;537.80;2406.40;;;;;;5019735;28;20041;-56
2021/08/06 00:28:46;;;;;;;3.95;2.67;;;537.60;2406.40;;;;;;5029624;28;20021;-55
2021/08/06 00:31:12;;;;;;;5.22;2.95;;;512.90;2380.80;;;;;;5029440;28;20373;-55
2021/08/06 00:33:38;;;;;;;3.88;2.50;;;512.90;2380.80;;;;;;5029231;28;20095;-55
2021/08/06 00:36:04;;;;;;;5.78;2.90;;;512.80;2380.80;;;;;;5029197;28;20025;-56
2021/08/06 00:38:29;;;;;;;3.80;2.65;;;512.90;2380.80;;;;;;5029360;28;20017;-56
2021/08/06 00:40:55;;;;;;;6.05;2.47;;;512.90;2380.80;;;;;;5030787;28;20119;-55
2021/08/06 00:43:22;;;;;;;4.30;2.40;;;512.80;2380.80;;;;;;5032931;28;20065;-55
2021/08/06 00:45:48;;;;;;;3.42;2.35;;;512.70;2380.80;;;;;;5032932;28;20041;-55
2021/08/06 00:48:14;;;;;;;3.30;2.17;;;512.80;2380.80;;;;;;5032830;28;20017;-57
2021/08/06 00:50:40;;;;;;;3.72;2.47;;;512.70;2380.80;;;;;;5032920;28;20431;-56
2021/08/06 00:53:07;;;;;;;4.60;2.50;;;512.60;2380.80;;;;;;5032920;28;20088;-59
2021/08/06 00:55:33;;;;;;;4.18;2.25;;;512.60;2380.80;;;;;;5032674;28;20037;-56
2021/08/06 00:57:58;;;;;;;6.75;2.53;;;512.50;2380.80;;;;;;5032865;28;20384;-55
2021/08/06 01:00:25;;;;;;;4.40;2.40;;;512.50;2380.80;;;;;;5032579;28;20029;-56
2021/08/06 01:03:05;;;;;;;2.92;2.22;;;512.50;2380.80;;;;;;5032475;28;20113;-57
2021/08/06 01:05:35;;;;;;;3.80;2.65;;;512.50;2380.80;;;;;;5032351;28;20030;-58
2021/08/06 01:08:36;;;;;;;4.57;2.90;;;512.40;2380.80;;;;;;5032440;28;20025;-56
2021/08/06 01:11:03;;;;;;;4.50;2.22;;;512.30;2380.80;;;;;;4933067;29;20036;-57
2021/08/06 01:13:44;;;;;;;4.80;2.15;;;512.20;2380.80;;;;;;4933283;29;20056;-56
2021/08/06 01:16:11;;;;;;;4.72;2.50;;;512.20;2380.80;;;;;;4933093;29;20071;-57
2021/08/06 01:18:46;;;;;;;3.03;2.28;;;512.20;2380.80;;;;;;4933289;29;20031;-56
2021/08/06 01:21:16;;;;;;;3.22;2.30;;;512.10;2380.80;;;;;;4932791;29;20039;-58
2021/08/06 01:23:43;;;;;;;5.35;2.95;;;512.10;2380.80;;;;;;4932893;29;20119;-57
2021/08/06 01:26:21;;;;;;;3.72;2.35;;;512.10;2380.80;;;;;;4932614;29;20050;-58
2021/08/06 01:28:49;;;;;;;5.07;3.22;;;512.10;2380.80;;;;;;4933046;29;20243;-57
2021/08/06 01:31:21;;;;;;;4.55;3.25;;;512.10;2380.80;;;;;;4932766;29;20043;-57
2021/08/06 01:33:47;;;;;;;5.60;3.00;;;512.10;2380.80;;;;;;4932807;29;20039;-57
2021/08/06 01:36:12;;;;;;;3.90;2.75;;;512.10;2380.80;;;;;;4932728;29;20562;-57
2021/08/06 01:38:38;;;;;;;5.50;3.38;;;512.10;2380.80;;;;;;4932980;29;20069;-56
2021/08/06 01:41:35;;;;;;;6.13;3.15;;;512.10;2380.80;;;;;;4932268;29;20031;-55
2021/08/06 01:44:00;;;;;;;5.53;3.30;;;512.20;2380.80;;;;;;4932357;29;20378;-56
2021/08/06 01:46:35;;;;;;;3.85;2.85;;;512.30;2380.80;;;;;;4942387;28;20039;-56
2021/08/06 01:49:07;;;;;;;4.25;2.95;;;512.10;2380.80;;;;;;5031808;28;20083;-56
2021/08/06 01:51:35;;;;;;;3.42;2.50;;;512.10;2380.80;;;;;;5031427;28;20033;-56
2021/08/06 01:54:02;;;;;;;3.40;2.50;;;512.30;2380.80;;;;;;5031064;28;20026;-56
2021/08/06 01:56:29;;;;;;;4.43;2.47;;;512.30;2380.80;;;;;;5031690;28;20088;-57
2021/08/06 01:58:57;;;;;;;3.25;2.42;;;512.30;2380.80;;;;;;5031542;28;20025;-56
2021/08/06 02:01:23;;;;;;;3.42;2.40;;;512.40;2380.80;;;;;;5031534;28;20098;-56
2021/08/06 02:03:49;;;;;;;2.88;2.15;;;512.30;2380.80;;;;;;5031616;28;20021;-56
2021/08/06 02:06:18;;;;;;;3.25;1.92;;;512.30;2380.80;;;;;;5031560;28;20037;-56
2021/08/06 02:08:44;;;;;;;4.97;2.40;;;512.10;2380.80;;;;;;5031373;28;20025;-56
2021/08/06 02:11:12;;;;;;;3.17;1.95;;;512.10;2380.80;;;;;;5031322;28;20025;-56
2021/08/06 02:13:39;;;;;;;3.72;1.70;;;512.00;2380.80;;;;;;5031558;28;20029;-55
2021/08/06 02:16:06;;;;;;;4.63;2.00;;;512.00;2380.80;;;;;;5031328;28;20025;-57
2021/08/06 02:18:33;;;;;;;3.97;2.25;;;512.00;2380.80;;;;;;5031076;28;20017;-56
2021/08/06 02:21:05;;;;;;;4.07;1.88;;;487.30;2380.80;;;;;;5031048;28;20484;-56
2021/08/06 02:23:33;;;;;;;3.10;2.03;;;487.30;2380.80;;;;;;5031105;28;20033;-57
2021/08/06 02:26:00;;;;;;;2.70;1.77;;;487.20;2380.80;;;;;;5030904;28;20038;-55
2021/08/06 02:28:27;;;;;;;3.72;2.13;;;487.30;2380.80;;;;;;5030914;28;20128;-56
2021/08/06 02:30:54;;;;;;;3.40;2.10;;;487.10;2380.80;;;;;;5030987;28;20032;-55
2021/08/06 02:33:20;;;;;;;4.13;2.30;;;487.10;2380.80;;;;;;5031112;28;20021;-56
2021/08/06 02:35:46;;;;;;;3.45;2.30;;;487.00;2380.80;;;;;;5030962;28;20437;-56
2021/08/06 02:38:20;;;;;;;4.13;2.13;;;486.80;2380.80;;;;;;5030914;28;20057;-55
2021/08/06 02:40:46;;;;;;;4.00;2.42;;;486.80;2380.80;;;;;;5030969;28;20037;-56
2021/08/06 02:43:12;;;;;;;2.75;2.00;;;486.80;2380.80;;;;;;5030771;28;20017;-56
2021/08/06 02:45:39;;;;;;;5.47;2.63;;;486.80;2380.80;;;;;;5030784;28;20044;-56
2021/08/06 02:48:05;;;;;;;4.45;2.70;;;486.80;2380.80;;;;;;5030614;28;20030;-56
2021/08/06 02:50:31;;;;;;;4.65;2.60;;;486.70;2380.80;;;;;;5030367;28;20037;-57
2021/08/06 02:52:57;;;;;;;4.00;2.28;;;486.70;2380.80;;;;;;5030434;28;20025;-57
2021/08/06 02:55:23;;;;;;;3.70;2.30;;;486.60;2380.80;;;;;;5030297;28;20034;-55
2021/08/06 02:57:48;;;;;;;3.38;2.33;;;486.60;2380.80;;;;;;5030534;28;20025;-56
2021/08/06 03:00:15;;;;;;;5.30;2.80;;;486.50;2380.80;;;;;;5030615;28;20491;-57
2021/08/06 03:02:41;;;;;;;4.88;2.15;;;486.40;2380.80;;;;;;5030591;28;20028;-56
2021/08/06 03:05:07;;;;;;;7.55;2.70;;;486.50;2380.80;;;;;;5029402;28;20401;-56
2021/08/06 03:07:33;;;;;;;4.75;3.15;;;486.40;2380.80;;;;;;5030157;28;20029;-56
2021/08/06 03:09:58;;;;;;;8.25;2.75;;;461.70;2380.80;;;;;;5030213;28;20376;-56
2021/08/06 03:12:24;;;;;;;6.57;3.60;;;461.40;2380.80;;;;;;5030319;28;20032;-56
2021/08/06 03:14:50;;;;;;;6.65;3.00;;;461.30;2380.80;;;;;;5030198;28;20036;-56
2021/08/06 03:17:16;;;;;;;4.40;3.15;;;461.30;2380.80;;;;;;5030236;28;20120;-56
2021/08/06 03:19:42;;;;;;;7.88;3.13;;;461.20;2380.80;;;;;;5030152;28;20025;-56
2021/08/06 03:22:07;;;;;;;4.03;3.22;;;461.10;2380.80;;;;;;5029832;28;20033;-56
2021/08/06 03:24:34;;;;;;;8.55;2.85;;;461.00;2380.80;;;;;;5030146;28;20045;-56
2021/08/06 03:27:00;;;;;;;5.55;3.40;;;460.90;2380.80;;;;;;5029810;28;20102;-56
2021/08/06 03:29:25;;;;;;;7.10;3.00;;;460.80;2380.80;;;;;;5030071;28;20460;-55
2021/08/06 03:31:51;;;;;;;4.45;2.40;;;460.80;2380.80;;;;;;5029934;28;20486;-58
2021/08/06 03:34:17;;;;;;;3.65;2.33;;;460.80;2380.80;;;;;;5030161;28;20032;-56
2021/08/06 03:36:43;;;;;;;3.70;2.45;;;460.80;2380.80;;;;;;5029956;28;20074;-56
2021/08/06 03:39:08;;;;;;;3.67;2.22;;;460.80;2380.80;;;;;;5030332;28;20025;-56
2021/08/06 03:41:34;;;;;;;5.75;2.75;;;460.80;2380.80;;;;;;5029622;28;20025;-60
2021/08/06 03:44:00;;;;;;;2.90;2.00;;;460.80;2380.80;;;;;;5029809;28;20040;-56
2021/08/06 03:46:25;;;;;;;5.30;2.42;;;460.90;2380.80;;;;;;5029786;28;20484;-56
2021/08/06 03:48:51;;;;;;;5.88;2.72;;;460.80;2380.80;;;;;;5029576;28;20034;-55
2021/08/06 03:51:17;;;;;;;5.60;2.35;;;436.10;2355.20;;;;;;5029219;28;20025;-55
2021/08/06 03:53:43;;;;;;;4.15;2.10;;;436.10;2355.20;;;;;;5029675;28;20181;-57
2021/08/06 03:56:08;;;;;;;4.75;2.38;;;436.10;2355.20;;;;;;5029823;28;20021;-56
2021/08/06 03:58:34;;;;;;;5.00;2.92;;;436.10;2355.20;;;;;;5029614;28;20434;-56
2021/08/06 04:01:00;;;;;;;3.00;2.08;;;460.80;2380.80;;;;;;5029461;28;20030;-57
2021/08/06 04:03:25;;;;;;;4.05;2.40;;;460.80;2380.80;;;;;;5029941;28;20076;-56
2021/08/06 04:05:51;;;;;;;4.18;2.50;;;460.80;2380.80;;;;;;5028840;28;20087;-55
2021/08/06 04:08:18;;;;;;;3.42;2.25;;;461.00;2380.80;;;;;;5029007;28;20083;-55
2021/08/06 04:10:44;;;;;;;4.32;2.05;;;461.00;2380.80;;;;;;5029539;28;20419;-57
2021/08/06 04:13:09;;;;;;;3.25;2.13;;;461.10;2380.80;;;;;;5029836;28;20026;-56
2021/08/06 04:15:35;;;;;;;5.75;2.40;;;461.20;2380.80;;;;;;5030990;28;20353;-55
2021/08/06 04:18:01;;;;;;;6.40;2.55;;;461.40;2380.80;;;;;;5033356;28;20515;-54
2021/08/06 04:20:27;;;;;;;3.72;1.77;;;461.50;2380.80;;;;;;5033643;28;20109;-54
2021/08/06 04:22:53;;;;;;;4.57;2.15;;;461.50;2380.80;;;;;;5033155;28;20465;-55
2021/08/06 04:25:19;;;;;;;3.72;2.55;;;461.70;2380.80;;;;;;5033354;28;20045;-56
2021/08/06 04:27:44;;;;;;;5.47;2.60;;;486.40;2380.80;;;;;;5033442;28;20057;-56
2021/08/06 04:30:12;;;;;;;4.05;1.90;;;486.40;2380.80;;;;;;5033429;28;20029;-57
2021/08/06 04:32:38;;;;;;;5.28;2.70;;;486.40;2380.80;;;;;;5033341;28;20117;-65
2021/08/06 04:35:04;;;;;;;3.53;2.33;;;486.50;2380.80;;;;;;5033253;28;20068;-56
2021/08/06 04:37:30;;;;;;;5.57;2.75;;;486.60;2380.80;;;;;;5032989;28;20053;-57
2021/08/06 04:39:56;;;;;;;3.83;2.75;;;486.60;2380.80;;;;;;5033558;28;20476;-55
2021/08/06 04:42:22;;;;;;;3.80;2.60;;;486.60;2380.80;;;;;;5032889;28;20025;-55
2021/08/06 04:44:48;;;;;;;4.53;3.13;;;486.70;2380.80;;;;;;5033051;28;20045;-56
2021/08/06 04:47:14;;;;;;;5.30;3.45;;;486.80;2380.80;;;;;;5033117;28;20216;-57
2021/08/06 04:49:40;;;;;;;4.47;3.00;;;486.80;2380.80;;;;;;5033034;28;20542;-56
2021/08/06 04:52:06;;;;;;;4.78;2.30;;;486.80;2380.80;;;;;;5033118;28;20025;-55
2021/08/06 04:54:31;;;;;;;6.07;3.17;;;486.80;2380.80;;;;;;5032845;28;20032;-56
2021/08/06 04:56:57;;;;;;;3.70;2.10;;;487.00;2380.80;;;;;;5032849;28;20426;-56
2021/08/06 04:59:23;;;;;;;5.72;2.60;;;487.00;2380.80;;;;;;5032512;28;20028;-56
2021/08/06 05:01:49;;;;;;;4.70;2.83;;;512.40;2380.80;;;;;;5033296;28;20029;-56
2021/08/06 05:04:14;;;;;;;3.20;2.40;;;614.60;2432.00;;;;;;5032778;28;20021;-56
2021/08/06 05:06:40;;;;;;;5.07;3.17;;;692.00;2201.60;;;;;;5032791;28;20079;-56
2021/08/06 05:09:06;;;;;;;4.10;3.28;;;768.50;1920.00;;;;;;5032739;28;20422;-57
2021/08/06 05:11:32;;;;;;;4.47;3.70;;;819.60;1740.80;;;;;;5032570;28;20033;-56
2021/08/06 05:13:58;;;;;;;5.90;4.25;;;870.90;1612.80;;;;;;5032803;28;20030;-55
2021/08/06 05:16:23;;;;;;;6.43;4.05;;;896.70;1459.20;;;;;;5032451;28;20354;-56
2021/08/06 05:18:49;;;;;;;6.30;4.88;;;921.80;1382.40;;;;;;5032663;28;20044;-57
2021/08/06 05:21:15;;;;;;;5.75;4.00;;;947.60;1305.60;;;;;;5032388;28;20060;-60
2021/08/06 05:23:41;;;;;;;4.72;4.30;;;947.80;1254.40;;;;;;5032520;28;20034;-60
2021/08/06 05:26:07;;;;;;;9.70;5.85;;;947.40;1280.00;;;;;;5032036;28;20419;-57
2021/08/06 05:28:32;;;;;;;6.70;5.20;;;921.90;1331.20;;;;;;5031409;28;20029;-57
2021/08/06 05:30:58;;;;;;;8.65;5.45;;;922.30;1305.60;;;;;;5032366;28;20025;-57
2021/08/06 05:33:24;;;;;;;6.32;5.35;;;972.80;1254.40;;;;;;5032136;28;20022;-58
2021/08/06 05:35:49;;;;;;;5.78;5.22;;;948.10;1203.20;;;;;;5032290;28;20439;-57
2021/08/06 05:38:15;;;;;;;6.30;5.57;;;973.00;1203.20;;;;;;5032074;28;20026;-65
2021/08/06 05:40:44;;;;;;;6.40;5.68;;;973.50;1152.00;;;;;;5032017;28;20049;-55
2021/08/06 05:43:10;;;;;;;7.25;5.78;;;973.20;1177.60;;;;;;5032089;28;20030;-57
2021/08/06 05:45:36;;;;;;;7.22;5.50;;;998.70;1152.00;;;;;;5032045;28;20034;-66
2021/08/06 05:48:02;;;;;;;7.78;7.03;;;999.20;1126.40;;;;;;5031704;28;20025;-58
2021/08/06 05:50:29;;;;;;;7.63;6.95;;;1024.50;1100.80;;;;;;5031962;28;20164;-58
2021/08/06 05:52:55;;;;;;;8.25;7.53;;;1050.50;1024.00;;;;;;5031549;28;20022;-58
2021/08/06 05:55:21;;;;;;;7.53;6.88;;;1075.70;998.40;;;;;;5031660;28;20041;-59
2021/08/06 05:57:47;;;;;;;8.40;7.50;;;1076.10;947.20;;;;;;5031482;28;20460;-57
2021/08/06 06:00:15;;;;;;;10.13;9.38;;;1100.80;972.80;;;;;;5031794;28;20045;-64
2021/08/06 06:02:41;;;;;;;9.63;8.88;;;1101.20;972.80;;;;;;5031778;28;20030;-61
2021/08/06 06:05:08;;;;;;;10.10;9.20;;;1100.90;947.20;;;;;;5031707;28;20037;-65
2021/08/06 06:07:45;;;;;;;11.05;10.10;;;1126.40;921.60;;;;;;5031365;28;20439;-62
2021/08/06 06:10:11;;;;;;;9.90;9.30;;;1100.90;921.60;;;;;;5031294;28;20075;-59
2021/08/06 06:12:38;;;;;;;9.82;9.00;;;1050.50;947.20;;;;;;5031436;28;20018;-59
2021/08/06 06:15:04;;;;;;;11.00;9.90;;;1075.60;921.60;;;;;;5031273;28;20021;-59
2021/08/06 06:17:30;;;;;;;9.93;9.13;;;1075.40;921.60;;;;;;5031331;28;20495;-59
2021/08/06 06:19:55;;;;;;;8.57;8.00;;;1075.80;896.00;;;;;;5031211;28;20033;-59
2021/08/06 06:22:21;;;;;;;8.25;7.72;;;1126.40;844.80;;;;;;5031041;28;20037;-61
2021/08/06 06:24:47;;;;;;;9.43;8.85;;;1126.70;819.20;;;;;;5031222;28;20052;-59
2021/08/06 06:27:12;;;;;;;10.35;9.65;;;1126.70;819.20;;;;;;5030962;28;20046;-60
2021/08/06 06:29:38;;;;;;;9.85;9.18;;;1127.00;793.60;;;;;;5013950;28;20057;-59
2021/08/06 06:32:04;;;;;;;10.82;9.85;;;1127.10;819.20;;;;;;5031138;28;20456;-59
2021/08/06 06:34:30;;;;;;;42.08;14.48;;;1127.10;793.60;;;;;;5030901;28;20034;-59
2021/08/06 06:36:56;;;;;;;14.77;12.02;;;1152.40;768.00;;;;;;5031266;28;20501;-58
2021/08/06 06:39:22;;;;;;;10.90;10.10;;;1177.60;742.40;;;;;;5030620;28;20033;-62
2021/08/06 06:41:47;;;;;;;9.90;9.30;;;1152.40;793.60;;;;;;5030849;28;20022;-59
2021/08/06 06:44:13;;;;;;;10.73;10.00;;;1152.00;793.60;;;;;;5030737;28;20029;-59
2021/08/06 06:46:39;;;;;;;10.95;10.35;;;1101.40;819.20;;;;;;5031151;28;20387;-59
2021/08/06 06:49:04;;;;;;;10.55;9.90;;;1101.40;819.20;;;;;;5030950;28;20028;-59
2021/08/06 06:51:30;;;;;;;10.70;10.20;;;1126.70;819.20;;;;;;5030509;28;20029;-59
2021/08/06 06:53:56;;;;;;;11.05;10.45;;;1152.60;742.40;;;;;;5030754;28;20022;-59
2021/08/06 06:56:23;;;;;;;10.20;9.45;;;1177.70;716.80;;;;;;5030298;28;20022;-59
2021/08/06 06:58:49;;;;;;;11.85;11.05;;;1178.10;716.80;;;;;;5030691;28;20057;-64
2021/08/06 07:01:15;;;;;;;11.55;10.88;;;1177.80;716.80;;;;;;5030521;28;20060;-60
2021/08/06 07:03:40;;;;;;;11.00;10.50;;;1204.10;665.60;;;;;;5030531;28;20036;-60
2021/08/06 07:06:06;;;;;;;11.30;10.70;;;1203.80;691.20;;;;;;5030470;28;20034;-60
2021/08/06 07:08:32;;;;;;;11.57;10.98;;;1229.50;640.00;;;;;;5030387;28;20044;-59
2021/08/06 07:10:58;;;;;;;10.80;10.20;;;1229.00;691.20;;;;;;5030384;28;20072;-59
2021/08/06 07:13:23;;;;;;;11.35;10.80;;;1229.00;665.60;;;;;;5030406;28;20457;-60
2021/08/06 07:15:49;;;;;;;10.45;9.85;;;1203.40;665.60;;;;;;5030656;28;20094;-62
2021/08/06 07:18:15;;;;;;;10.52;10.02;;;1203.60;665.60;;;;;;5030514;28;20496;-59
2021/08/06 07:20:41;;;;;;;11.02;10.13;;;1203.80;640.00;;;;;;5030265;28;20032;-61
2021/08/06 07:23:07;;;;;;;9.65;9.15;;;1228.80;665.60;;;;;;5030113;28;20036;-59
2021/08/06 07:25:33;;;;;;;9.45;8.95;;;1228.90;665.60;;;;;;5029889;28;20072;-59
2021/08/06 07:27:58;;;;;;;11.52;10.70;;;1229.20;640.00;;;;;;5030067;28;20072;-62
2021/08/06 07:30:25;;;;;;;9.10;8.60;;;1229.20;665.60;;;;;;5030057;28;20026;-59
2021/08/06 07:32:51;;;;;;;9.32;8.85;;;1229.20;665.60;;;;;;5029956;28;20461;-60
2021/08/06 07:35:18;;;;;;;9.60;9.10;;;1204.10;640.00;;;;;;5030060;28;20071;-59
2021/08/06 07:37:44;;;;;;;9.75;9.05;;;1228.90;665.60;;;;;;5029841;28;20053;-61
2021/08/06 07:40:12;;;;;;;8.20;7.80;;;1229.00;665.60;;;;;;5026394;28;20032;-58
2021/08/06 07:42:37;;;;;;;8.45;7.95;;;1203.80;665.60;;;;;;5019441;28;20024;-58
2021/08/06 07:45:05;;;;;;;9.73;9.15;;;1228.90;665.60;;;;;;5013298;28;20033;-60
2021/08/06 07:47:31;;;;;;;7.60;7.05;;;1203.70;691.20;;;;;;5026644;28;20033;-59
2021/08/06 07:49:57;;;;;;;8.15;7.65;;;1203.70;665.60;;;;;;5029510;28;20095;-59
2021/08/06 07:52:23;;;;;;;8.07;7.57;;;1178.50;665.60;;;;;;5029859;28;20448;-61
2021/08/06 07:54:48;;;;;;;7.95;7.55;;;1203.40;665.60;;;;;;5029912;28;20041;-59
2021/08/06 07:57:14;;;;;;;8.20;7.70;;;1203.60;665.60;;;;;;5029556;28;20029;-62
2021/08/06 07:59:40;;;;;;;7.63;7.22;;;1203.40;665.60;;;;;;5029662;28;20022;-61
2021/08/06 08:02:07;;;;;;;7.28;6.88;;;1203.80;665.60;;;;;;5030017;28;20491;-62
2021/08/06 08:04:34;;;;;;;7.93;7.53;;;1229.20;640.00;;;;;;5029535;28;20025;-60
2021/08/06 08:06:59;;;;;;;17.65;7.47;;;1229.30;640.00;;;;;;5029655;28;20075;-60
2021/08/06 08:09:25;;;;;;;7.40;6.95;;;1254.40;665.60;;;;;;5029755;28;20101;-61
2021/08/06 08:11:51;;;;;;;7.70;7.30;;;1204.10;640.00;;;;;;5029275;28;20022;-61
2021/08/06 08:14:17;;;;;;;8.50;8.00;;;1228.90;665.60;;;;;;5029915;28;20040;-62
2021/08/06 08:16:43;;;;;;;7.25;6.85;;;1229.00;640.00;;;;;;5029701;28;20025;-60
2021/08/06 08:19:08;;;;;;;6.97;6.57;;;1203.90;640.00;;;;;;5029657;28;20108;-64
2021/08/06 08:21:34;;;;;;;7.22;6.72;;;1203.20;665.60;;;;;;5029463;28;20105;-65
2021/08/06 08:24:00;;;;;;;6.95;6.55;;;1203.30;640.00;;;;;;5029313;28;20030;-61
2021/08/06 08:26:26;;;;;;;6.38;5.97;;;1203.70;614.40;;;;;;5029153;28;20053;-59
2021/08/06 08:28:52;;;;;;;6.43;5.93;;;1177.70;665.60;;;;;;5029502;28;20056;-64
2021/08/06 08:31:18;;;;;;;5.60;5.30;;;1152.20;665.60;;;;;;5029453;28;20037;-61
2021/08/06 08:33:44;;;;;;;5.65;5.28;;;1127.00;716.80;;;;;;5029247;28;20380;-59
2021/08/06 08:36:10;;;;;;;5.00;4.70;;;1101.10;716.80;;;;;;5029451;28;20106;-60
2021/08/06 08:38:36;;;;;;;3.00;2.70;;;1024.70;793.60;;;;;;5029626;28;20463;-62
2021/08/06 08:41:03;;;;;;;2.20;2.00;;;973.00;870.40;;;;;;5029164;28;20415;-60
2021/08/06 08:43:29;;;;;;;2.25;2.05;;;947.50;870.40;;;;;;5029243;28;20068;-61
2021/08/06 08:45:56;;;;;;;2.38;1.67;;;896.30;921.60;;;;;;5029192;28;20034;-59
2021/08/06 08:48:22;;;;;;;2.00;1.80;;;870.90;947.20;;;;;;5029210;28;20468;-60
2021/08/06 08:50:52;;;;;;;1.65;1.55;;;845.60;972.80;;;;;;5029419;28;20484;-60
2021/08/06 08:53:19;;;;;;;3.40;2.03;;;845.50;998.40;;;;;;5029372;28;20404;-59
2021/08/06 08:55:45;;;;;;;2.47;1.98;;;845.40;998.40;;;;;;5029131;28;20030;-59
2021/08/06 08:58:11;;;;;;;1.98;1.77;;;844.90;1024.00;;;;;;5029250;28;20025;-61
2021/08/06 09:00:39;;;;;;;1.92;1.55;;;845.20;1049.60;;;;;;5029316;28;20103;-61
2021/08/06 09:03:04;;;;;;;1.88;1.60;;;845.00;1049.60;;;;;;5030563;28;20487;-59
2021/08/06 09:05:30;;;;;;;3.03;2.20;;;819.80;1024.00;;;;;;5032452;28;20038;-61
2021/08/06 09:07:58;;;;;;;2.60;1.88;;;819.60;1024.00;;;;;;5032674;28;20107;-59
2021/08/06 09:10:27;;;;;;;4.63;2.10;;;819.40;1075.20;;;;;;5032420;28;20035;-59
2021/08/06 09:13:02;;;;;;;2.63;1.92;;;819.30;1075.20;;;;;;5032287;28;20028;-60
2021/08/06 09:15:44;;;;;;;2.50;1.83;;;819.30;1075.20;;;;;;5032655;28;20488;-60
2021/08/06 09:18:27;;;;;;;2.25;1.80;;;819.40;1075.20;;;;;;5032529;28;20030;-59
2021/08/06 09:20:55;;;;;;;2.38;1.90;;;819.30;1100.80;;;;;;5032201;28;20056;-60
2021/08/06 09:23:46;;;;;;;2.45;1.85;;;794.50;1075.20;;;;;;5014037;28;20045;-59
2021/08/06 09:26:27;;;;;;;3.28;2.38;;;794.30;1075.20;;;;;;5031970;28;20563;-59
2021/08/06 09:29:00;;;;;;;2.13;1.80;;;794.20;1075.20;;;;;;5032091;28;20033;-62
2021/08/06 09:31:26;;;;;;;2.20;1.70;;;794.00;1100.80;;;;;;5032224;28;20025;-59
2021/08/06 09:34:18;;;;;;;2.35;1.85;;;794.20;1100.80;;;;;;5032066;28;20072;-60
2021/08/06 09:37:07;;;;;;;2.65;1.92;;;794.20;1100.80;;;;;;5032044;28;20025;-64
2021/08/06 09:39:36;;;;;;;3.22;2.17;;;794.30;1100.80;;;;;;5031986;28;20022;-59
2021/08/06 09:42:03;;;;;;;2.65;1.95;;;794.50;1100.80;;;;;;5031734;28;20423;-60
2021/08/06 09:44:30;;;;;;;3.13;2.30;;;794.00;1126.40;;;;;;5032063;28;20043;-59
2021/08/06 09:46:57;;;;;;;3.92;1.90;;;794.20;1100.80;;;;;;5032153;28;20040;-61
2021/08/06 09:49:24;;;;;;;1.77;1.50;;;794.20;1075.20;;;;;;5031799;28;20448;-61
2021/08/06 09:51:51;;;;;;;2.30;1.73;;;794.30;1049.60;;;;;;5031951;28;20105;-59
2021/08/06 09:54:21;;;;;;;2.47;2.00;;;794.40;1075.20;;;;;;5032097;28;20029;-59
2021/08/06 09:56:48;;;;;;;2.63;1.88;;;794.40;1100.80;;;;;;5031699;28;20551;-60
2021/08/06 09:59:30;;;;;;;1.77;1.50;;;794.40;1100.80;;;;;;5031769;28;20025;-61
2021/08/06 10:02:31;;;;;;;4.47;1.80;;;794.50;1100.80;;;;;;5031844;28;20427;-61
2021/08/06 10:05:11;;;;;;;1.92;1.70;;;794.30;1100.80;;;;;;4916282;29;20479;-59
2021/08/06 10:07:38;;;;;;;2.53;1.55;;;794.20;1126.40;;;;;;4932668;29;20436;-62
2021/08/06 10:10:08;;;;;;;2.92;2.22;;;794.00;1075.20;;;;;;4932075;29;20067;-59
2021/08/06 10:12:34;;;;;;;2.25;1.70;;;793.80;1100.80;;;;;;4932073;29;20498;-60
2021/08/06 10:15:00;;;;;;;2.70;1.73;;;794.00;1075.20;;;;;;4929126;29;20031;-60
2021/08/06 10:17:26;;;;;;;2.00;1.60;;;794.00;1075.20;;;;;;4930014;29;20020;-58
2021/08/06 10:19:52;;;;;;;2.13;1.73;;;793.80;1100.80;;;;;;4929981;29;20538;-59
2021/08/06 10:22:19;;;;;;;3.00;1.90;;;768.60;1100.80;;;;;;4930134;29;20035;-59
2021/08/06 10:24:53;;;;;;;3.50;2.05;;;768.70;1075.20;;;;;;4913872;29;20166;-61
2021/08/06 10:27:24;;;;;;;2.85;2.05;;;768.90;1100.80;;;;;;4929362;29;20463;-62
2021/08/06 10:30:01;;;;;;;2.60;1.80;;;768.90;1126.40;;;;;;4930107;29;20494;-60
2021/08/06 10:32:28;;;;;;;3.40;2.20;;;793.60;1126.40;;;;;;4929894;29;20127;-59
2021/08/06 10:35:03;;;;;;;3.00;1.92;;;793.70;1100.80;;;;;;4929805;29;20842;-59
2021/08/06 10:37:47;;;;;;;3.67;1.90;;;794.10;1075.20;;;;;;4929875;29;20024;-58
2021/08/06 10:40:33;;;;;;;2.50;1.90;;;794.10;1075.20;;;;;;5028941;28;20375;-59
2021/08/06 10:43:12;;;;;;;3.22;2.45;;;793.60;1126.40;;;;;;5012571;28;20030;-61
2021/08/06 10:45:47;;;;;;;2.60;1.90;;;793.60;1100.80;;;;;;5029358;28;20056;-59
2021/08/06 10:48:31;;;;;;;2.63;2.15;;;768.50;1075.20;;;;;;5028723;28;20032;-61
2021/08/06 10:51:18;;;;;;;3.58;2.13;;;768.80;1100.80;;;;;;5029298;28;20026;-58
2021/08/06 10:53:58;;;;;;;2.63;1.92;;;768.60;1100.80;;;;;;5028447;28;20675;-59
2021/08/06 10:56:28;;;;;;;2.50;1.70;;;768.30;1100.80;;;;;;5028998;28;20104;-59
2021/08/06 10:59:04;;;;;;;3.65;2.15;;;768.10;1126.40;;;;;;5028921;28;20036;-59
2021/08/06 11:01:33;;;;;;;2.70;2.05;;;768.40;1126.40;;;;;;5029167;28;20044;-60
2021/08/06 11:04:04;;;;;;;2.80;2.03;;;768.20;1100.80;;;;;;5028848;28;20061;-62
2021/08/06 11:06:34;;;;;;;2.83;1.88;;;768.10;1126.40;;;;;;5028483;28;20037;-61
2021/08/06 11:09:01;;;;;;;4.78;1.88;;;768.20;1100.80;;;;;;5029101;28;20068;-59
2021/08/06 11:11:59;;;;;;;6.88;2.10;;;768.40;1100.80;;;;;;5028882;28;20510;-60
2021/08/06 11:14:28;;;;;;;2.58;1.85;;;768.30;1100.80;;;;;;5028611;28;20574;-61
2021/08/06 11:17:15;;;;;;;2.85;1.90;;;768.40;1100.80;;;;;;5028603;28;20029;-59
2021/08/06 11:19:45;;;;;;;1.92;1.77;;;768.40;1100.80;;;;;;5028258;28;20392;-60
2021/08/06 11:22:25;;;;;;;3.08;1.77;;;768.40;1075.20;;;;;;5028546;28;20464;-60
2021/08/06 11:25:15;;;;;;;2.65;1.90;;;768.70;1126.40;;;;;;5027809;28;20050;-60
2021/08/06 11:27:47;;;;;;;12.55;2.70;;;768.90;1075.20;;;;;;5028244;28;20057;-59
2021/08/06 11:30:25;;;;;;;4.28;1.95;;;768.80;1126.40;;;;;;5028514;28;20021;-59
2021/08/06 11:32:57;;;;;;;4.63;1.98;;;768.90;1126.40;;;;;;5028080;28;20037;-60
2021/08/06 11:35:26;;;;;;;3.92;1.70;;;768.90;1100.80;;;;;;5028209;28;20032;-62
2021/08/06 11:37:56;;;;;;;3.00;1.90;;;768.80;1100.80;;;;;;5028398;28;20109;-59
2021/08/06 11:40:30;;;;;;;2.47;2.00;;;768.90;1075.20;;;;;;5028255;28;20017;-59
2021/08/06 11:42:56;;;;;;;3.08;2.05;;;793.70;1100.80;;;;;;5028484;28;20033;-60
2021/08/06 11:45:26;;;;;;;4.05;1.70;;;794.00;1075.20;;;;;;5027607;28;20041;-59
2021/08/06 11:47:58;;;;;;;3.97;2.70;;;794.10;1075.20;;;;;;5028061;28;20084;-65
2021/08/06 11:50:41;;;;;;;2.63;2.17;;;794.00;1100.80;;;;;;5028137;28;20026;-60
2021/08/06 11:53:20;;;;;;;2.60;1.92;;;794.00;1049.60;;;;;;5011041;28;20361;-60
2021/08/06 11:55:48;;;;;;;4.13;2.20;;;794.00;1049.60;;;;;;5028432;28;20463;-60
2021/08/06 11:58:35;;;;;;;3.95;2.10;;;794.10;1075.20;;;;;;5027784;28;20022;-60
2021/08/06 12:01:02;;;;;;;3.17;1.60;;;794.20;1075.20;;;;;;5029506;28;20018;-59
2021/08/06 12:03:28;;;;;;;2.58;1.85;;;794.10;1075.20;;;;;;5030469;28;20036;-60
2021/08/06 12:06:00;;;;;;;2.70;1.92;;;794.00;1075.20;;;;;;5029467;28;20088;-61
2021/08/06 12:08:32;;;;;;;2.85;2.05;;;794.30;1049.60;;;;;;5029760;28;20033;-60
2021/08/06 12:11:07;;;;;;;2.45;2.03;;;794.30;1075.20;;;;;;5029787;28;20303;-63
2021/08/06 12:13:36;;;;;;;2.92;1.80;;;794.30;1049.60;;;;;;5029514;28;20017;-60
2021/08/06 12:16:14;;;;;;;4.30;2.10;;;794.00;1075.20;;;;;;5029754;28;20029;-60
2021/08/06 12:18:56;;;;;;;3.25;2.28;;;794.00;1075.20;;;;;;5029975;28;20030;-61
2021/08/06 12:21:25;;;;;;;2.50;2.00;;;794.00;1049.60;;;;;;5029555;28;20049;-59
2021/08/06 12:23:52;;;;;;;2.78;1.90;;;794.30;1024.00;;;;;;5029477;28;20338;-59